Aviation Digital Data Service (ADDS)

Output produced by METARs form (0610 UTC 25 June 2018)
found at http://www.aviationweather.gov/adds/metars/
 
TAF SUCA 250515Z 2506/2606 32005KT CAVOK TX12/2518Z TN00/2510Z 
     PROB40 
     TEMPO 2508/2512 0800 BCFG BKN005 
     BECMG 2513/2515 27010KT 9999 FEW026
       
TAF SUDU 250515Z 2506/2606 02005KT 7000 NSC TX11/2518Z TNM01/2510Z 
     PROB40 
     TEMPO 2507/2512 0800 BCFG BKN005 
     BECMG 2513/2515 27010KT 9999 FEW026
       
SUMU 250600Z 33005KT 6000 NSC 01/M02 Q1019 TEMPO BR
TAF SUMU 250515Z 2506/2606 32005KT 7000 NSC TX12/2518Z TNM01/2510Z 
     PROB40 
     TEMPO 2508/2512 0800 BCFG BKN005 
     BECMG 2513/2515 27010KT 9999 FEW026
       
TAF SUAA 250515Z 2506/2606 32005KT 7000 NSC TX12/2518Z TNM01/2510Z 
     PROB40 
     TEMPO 2508/2512 0800 BCFG BKN005 
     BECMG 2513/2515 27010KT 9999 FEW026
       
SULS 250600Z 31003KT CAVOK 02/00 Q1018
TAF SULS 250515Z 2506/2606 01005KT CAVOK TX12/2518Z TNM01/2510Z 
     PROB40 
     TEMPO 2508/2512 0800 BCFG BKN005 
     BECMG 2513/2515 27010KT 9999 FEW026
       
TAF SURV 250515Z 2506/2606 12005KT CAVOK TX14/2518Z TNM02/2510Z 
     TEMPO 2506/2512 3000 BR NSC 
     PROB40 
     TEMPO 2506/2512 0500 BCFG BKN003 
     BECMG 2513/2515 24005KT 9999 FEW026
       
TAF SUSO 250515Z 2506/2606 09005KT CAVOK TX15/2518Z TNM02/2510Z 
     TEMPO 2506/2512 3000 BR NSC 
     PROB40 
     TEMPO 2506/2512 0500 BCFG BKN003 
     BECMG 2513/2515 24005KT 9999 FEW026